Terminal Aerodrome Forecast
Issued by NWS

Home | Current Version | Previous Version | Text Only | Print | Product List | Glossary On
Versions: 1 2 3 4 5 6 7 8 9 10 11 12 13 14
000
FTUS42 KTBW 242320
TAFPGD
TAF
KPGD 242320Z 2500/2524 23015G28KT P6SM VCSH BKN025 OVC050
     FM250900 22015G25KT P6SM VCSH SCT015 OVC025
     FM251300 25013G18KT P6SM VCSH OVC025
     FM251600 27016G25KT P6SM SCT030 OVC050=

USA.gov is the U.S. government's official web portal to all federal, state and local government web resources and services.